sensor_id;sensor_type;location;lat;lon;timestamp;P1;durP1;ratioP1;P2;durP2;ratioP2
53151;SDS011;39234;53.158;6.322;2023-04-24T00:02:15;12.10;;;7.22;;
53151;SDS011;39234;53.158;6.322;2023-04-24T00:04:41;7.95;;;6.22;;
53151;SDS011;39234;53.158;6.322;2023-04-24T00:07:10;9.15;;;6.45;;
53151;SDS011;39234;53.158;6.322;2023-04-24T00:09:36;9.80;;;5.93;;
53151;SDS011;39234;53.158;6.322;2023-04-24T00:12:02;9.07;;;6.30;;
53151;SDS011;39234;53.158;6.322;2023-04-24T00:14:31;7.80;;;6.68;;
53151;SDS011;39234;53.158;6.322;2023-04-24T00:16:57;6.68;;;5.38;;
53151;SDS011;39234;53.158;6.322;2023-04-24T00:19:22;6.82;;;4.15;;
53151;SDS011;39234;53.158;6.322;2023-04-24T00:21:48;7.78;;;3.15;;
53151;SDS011;39234;53.158;6.322;2023-04-24T00:24:15;4.18;;;2.30;;
53151;SDS011;39234;53.158;6.322;2023-04-24T00:26:42;4.65;;;2.25;;
53151;SDS011;39234;53.158;6.322;2023-04-24T00:29:07;5.63;;;2.67;;
53151;SDS011;39234;53.158;6.322;2023-04-24T00:31:33;5.50;;;2.38;;
53151;SDS011;39234;53.158;6.322;2023-04-24T00:34:02;4.75;;;2.10;;
53151;SDS011;39234;53.158;6.322;2023-04-24T00:36:28;3.67;;;2.10;;
53151;SDS011;39234;53.158;6.322;2023-04-24T00:38:54;3.97;;;2.67;;
53151;SDS011;39234;53.158;6.322;2023-04-24T00:41:20;4.38;;;2.83;;
53151;SDS011;39234;53.158;6.322;2023-04-24T00:43:47;5.28;;;2.95;;
53151;SDS011;39234;53.158;6.322;2023-04-24T00:46:13;4.70;;;2.80;;
53151;SDS011;39234;53.158;6.322;2023-04-24T00:48:39;5.15;;;3.28;;
53151;SDS011;39234;53.158;6.322;2023-04-24T00:51:05;5.80;;;2.80;;
53151;SDS011;39234;53.158;6.322;2023-04-24T00:53:31;5.50;;;2.83;;
53151;SDS011;39234;53.158;6.322;2023-04-24T00:55:58;4.30;;;3.03;;
53151;SDS011;39234;53.158;6.322;2023-04-24T00:58:24;4.88;;;3.00;;
53151;SDS011;39234;53.158;6.322;2023-04-24T01:00:52;5.22;;;2.88;;
53151;SDS011;39234;53.158;6.322;2023-04-24T01:03:21;5.28;;;3.15;;
53151;SDS011;39234;53.158;6.322;2023-04-24T01:05:49;4.75;;;3.13;;
53151;SDS011;39234;53.158;6.322;2023-04-24T01:08:15;4.20;;;2.90;;
53151;SDS011;39234;53.158;6.322;2023-04-24T01:10:41;5.43;;;3.17;;
53151;SDS011;39234;53.158;6.322;2023-04-24T01:13:09;5.25;;;3.10;;
53151;SDS011;39234;53.158;6.322;2023-04-24T01:15:35;3.80;;;2.67;;
53151;SDS011;39234;53.158;6.322;2023-04-24T01:18:01;4.07;;;2.60;;
53151;SDS011;39234;53.158;6.322;2023-04-24T01:20:28;4.20;;;2.60;;
53151;SDS011;39234;53.158;6.322;2023-04-24T01:22:55;4.32;;;2.67;;
53151;SDS011;39234;53.158;6.322;2023-04-24T01:25:22;4.10;;;2.80;;
53151;SDS011;39234;53.158;6.322;2023-04-24T01:27:50;4.25;;;2.78;;
53151;SDS011;39234;53.158;6.322;2023-04-24T01:30:17;3.95;;;2.65;;
53151;SDS011;39234;53.158;6.322;2023-04-24T01:32:43;4.47;;;2.80;;
53151;SDS011;39234;53.158;6.322;2023-04-24T01:35:10;3.65;;;2.35;;
53151;SDS011;39234;53.158;6.322;2023-04-24T01:37:36;3.78;;;2.65;;
53151;SDS011;39234;53.158;6.322;2023-04-24T01:40:05;6.10;;;2.47;;
53151;SDS011;39234;53.158;6.322;2023-04-24T01:42:31;5.38;;;2.70;;
53151;SDS011;39234;53.158;6.322;2023-04-24T01:44:57;5.57;;;2.97;;
53151;SDS011;39234;53.158;6.322;2023-04-24T01:47:24;5.15;;;2.72;;
53151;SDS011;39234;53.158;6.322;2023-04-24T01:49:51;5.10;;;2.72;;
53151;SDS011;39234;53.158;6.322;2023-04-24T01:52:17;4.43;;;2.97;;
53151;SDS011;39234;53.158;6.322;2023-04-24T01:54:44;3.72;;;2.70;;
53151;SDS011;39234;53.158;6.322;2023-04-24T01:57:10;5.43;;;3.20;;
53151;SDS011;39234;53.158;6.322;2023-04-24T01:59:36;6.25;;;2.90;;
53151;SDS011;39234;53.158;6.322;2023-04-24T02:02:02;5.75;;;3.05;;
53151;SDS011;39234;53.158;6.322;2023-04-24T02:04:28;4.88;;;3.35;;
53151;SDS011;39234;53.158;6.322;2023-04-24T02:06:54;4.75;;;3.63;;
53151;SDS011;39234;53.158;6.322;2023-04-24T02:09:20;6.30;;;3.65;;
53151;SDS011;39234;53.158;6.322;2023-04-24T02:11:46;4.75;;;3.58;;
53151;SDS011;39234;53.158;6.322;2023-04-24T02:14:12;5.50;;;4.00;;
53151;SDS011;39234;53.158;6.322;2023-04-24T02:16:37;6.35;;;4.25;;
53151;SDS011;39234;53.158;6.322;2023-04-24T02:19:03;8.55;;;4.43;;
53151;SDS011;39234;53.158;6.322;2023-04-24T02:21:29;8.15;;;4.28;;
53151;SDS011;39234;53.158;6.322;2023-04-24T02:23:56;7.35;;;4.97;;
53151;SDS011;39234;53.158;6.322;2023-04-24T02:26:22;9.65;;;5.13;;
53151;SDS011;39234;53.158;6.322;2023-04-24T02:28:48;6.00;;;5.10;;
53151;SDS011;39234;53.158;6.322;2023-04-24T02:31:14;6.25;;;5.15;;
53151;SDS011;39234;53.158;6.322;2023-04-24T02:33:40;8.95;;;5.80;;
53151;SDS011;39234;53.158;6.322;2023-04-24T02:36:06;6.45;;;5.75;;
53151;SDS011;39234;53.158;6.322;2023-04-24T02:38:31;7.47;;;6.20;;
53151;SDS011;39234;53.158;6.322;2023-04-24T02:40:57;7.50;;;6.55;;
53151;SDS011;39234;53.158;6.322;2023-04-24T02:43:23;9.27;;;6.85;;
53151;SDS011;39234;53.158;6.322;2023-04-24T02:45:49;9.63;;;7.43;;
53151;SDS011;39234;53.158;6.322;2023-04-24T02:48:15;8.52;;;7.47;;
53151;SDS011;39234;53.158;6.322;2023-04-24T02:50:42;9.63;;;7.22;;
53151;SDS011;39234;53.158;6.322;2023-04-24T02:53:08;12.85;;;7.72;;
53151;SDS011;39234;53.158;6.322;2023-04-24T02:55:34;11.23;;;9.27;;
53151;SDS011;39234;53.158;6.322;2023-04-24T02:58:00;11.40;;;9.02;;
53151;SDS011;39234;53.158;6.322;2023-04-24T03:00:26;10.27;;;8.80;;
53151;SDS011;39234;53.158;6.322;2023-04-24T03:02:52;10.68;;;9.10;;
53151;SDS011;39234;53.158;6.322;2023-04-24T03:05:18;12.05;;;9.75;;
53151;SDS011;39234;53.158;6.322;2023-04-24T03:07:44;11.75;;;9.48;;
53151;SDS011;39234;53.158;6.322;2023-04-24T03:10:10;11.60;;;9.40;;
53151;SDS011;39234;53.158;6.322;2023-04-24T03:12:36;11.73;;;10.50;;
53151;SDS011;39234;53.158;6.322;2023-04-24T03:15:02;11.85;;;10.10;;
53151;SDS011;39234;53.158;6.322;2023-04-24T03:17:28;13.73;;;11.10;;
53151;SDS011;39234;53.158;6.322;2023-04-24T03:19:53;12.60;;;10.77;;
53151;SDS011;39234;53.158;6.322;2023-04-24T03:22:19;13.75;;;11.50;;
53151;SDS011;39234;53.158;6.322;2023-04-24T03:24:45;14.02;;;11.05;;
53151;SDS011;39234;53.158;6.322;2023-04-24T03:27:10;14.43;;;12.85;;
53151;SDS011;39234;53.158;6.322;2023-04-24T03:29:36;15.95;;;12.85;;
53151;SDS011;39234;53.158;6.322;2023-04-24T03:32:02;15.52;;;12.55;;
53151;SDS011;39234;53.158;6.322;2023-04-24T03:34:28;14.52;;;13.00;;
53151;SDS011;39234;53.158;6.322;2023-04-24T03:36:54;17.40;;;14.20;;
53151;SDS011;39234;53.158;6.322;2023-04-24T03:39:20;17.13;;;14.52;;
53151;SDS011;39234;53.158;6.322;2023-04-24T03:41:45;18.27;;;14.77;;
53151;SDS011;39234;53.158;6.322;2023-04-24T03:44:11;18.65;;;13.90;;
53151;SDS011;39234;53.158;6.322;2023-04-24T03:46:37;17.35;;;15.30;;
53151;SDS011;39234;53.158;6.322;2023-04-24T03:49:02;20.55;;;15.57;;
53151;SDS011;39234;53.158;6.322;2023-04-24T03:51:28;16.98;;;14.90;;
53151;SDS011;39234;53.158;6.322;2023-04-24T03:53:55;17.30;;;14.82;;
53151;SDS011;39234;53.158;6.322;2023-04-24T03:56:21;19.30;;;16.30;;
53151;SDS011;39234;53.158;6.322;2023-04-24T03:58:46;21.40;;;16.25;;
53151;SDS011;39234;53.158;6.322;2023-04-24T04:01:12;18.48;;;15.52;;
53151;SDS011;39234;53.158;6.322;2023-04-24T04:03:38;20.23;;;16.40;;
53151;SDS011;39234;53.158;6.322;2023-04-24T04:06:04;18.95;;;15.80;;
53151;SDS011;39234;53.158;6.322;2023-04-24T04:08:30;18.33;;;15.70;;
53151;SDS011;39234;53.158;6.322;2023-04-24T04:10:55;22.33;;;17.83;;
53151;SDS011;39234;53.158;6.322;2023-04-24T04:13:21;22.45;;;17.52;;
53151;SDS011;39234;53.158;6.322;2023-04-24T04:15:47;22.48;;;17.23;;
53151;SDS011;39234;53.158;6.322;2023-04-24T04:18:12;20.98;;;16.33;;
53151;SDS011;39234;53.158;6.322;2023-04-24T04:20:38;18.42;;;15.00;;
53151;SDS011;39234;53.158;6.322;2023-04-24T04:23:04;15.13;;;12.75;;
53151;SDS011;39234;53.158;6.322;2023-04-24T04:25:30;15.88;;;8.75;;
53151;SDS011;39234;53.158;6.322;2023-04-24T04:27:55;9.93;;;7.80;;
53151;SDS011;39234;53.158;6.322;2023-04-24T04:30:23;9.30;;;7.47;;
53151;SDS011;39234;53.158;6.322;2023-04-24T04:32:49;10.57;;;8.40;;
53151;SDS011;39234;53.158;6.322;2023-04-24T04:35:15;9.18;;;5.60;;
53151;SDS011;39234;53.158;6.322;2023-04-24T04:37:40;7.97;;;4.85;;
53151;SDS011;39234;53.158;6.322;2023-04-24T04:40:06;7.03;;;4.05;;
53151;SDS011;39234;53.158;6.322;2023-04-24T04:42:34;9.45;;;4.30;;
53151;SDS011;39234;53.158;6.322;2023-04-24T04:45:00;7.38;;;4.90;;
53151;SDS011;39234;53.158;6.322;2023-04-24T04:47:26;7.22;;;4.30;;
53151;SDS011;39234;53.158;6.322;2023-04-24T04:49:53;5.25;;;3.47;;
53151;SDS011;39234;53.158;6.322;2023-04-24T04:52:19;5.78;;;3.33;;
53151;SDS011;39234;53.158;6.322;2023-04-24T04:54:49;6.18;;;3.85;;
53151;SDS011;39234;53.158;6.322;2023-04-24T04:57:15;4.55;;;2.40;;
53151;SDS011;39234;53.158;6.322;2023-04-24T04:59:41;4.30;;;2.05;;
53151;SDS011;39234;53.158;6.322;2023-04-24T05:02:07;3.60;;;1.85;;
53151;SDS011;39234;53.158;6.322;2023-04-24T05:04:33;3.45;;;2.20;;
53151;SDS011;39234;53.158;6.322;2023-04-24T05:06:58;4.40;;;2.40;;
53151;SDS011;39234;53.158;6.322;2023-04-24T05:09:24;6.57;;;2.55;;
53151;SDS011;39234;53.158;6.322;2023-04-24T05:11:52;4.82;;;2.50;;
53151;SDS011;39234;53.158;6.322;2023-04-24T05:14:18;4.20;;;2.50;;
53151;SDS011;39234;53.158;6.322;2023-04-24T05:16:44;4.75;;;3.10;;
53151;SDS011;39234;53.158;6.322;2023-04-24T05:19:10;4.45;;;2.65;;
53151;SDS011;39234;53.158;6.322;2023-04-24T05:21:36;4.25;;;2.58;;
53151;SDS011;39234;53.158;6.322;2023-04-24T05:24:04;4.82;;;2.72;;
53151;SDS011;39234;53.158;6.322;2023-04-24T05:26:30;6.38;;;2.70;;
53151;SDS011;39234;53.158;6.322;2023-04-24T05:28:56;5.75;;;3.22;;
53151;SDS011;39234;53.158;6.322;2023-04-24T05:31:21;5.50;;;2.85;;
53151;SDS011;39234;53.158;6.322;2023-04-24T05:33:47;6.22;;;2.80;;
53151;SDS011;39234;53.158;6.322;2023-04-24T05:36:13;4.47;;;2.88;;
53151;SDS011;39234;53.158;6.322;2023-04-24T05:38:40;4.28;;;2.67;;
53151;SDS011;39234;53.158;6.322;2023-04-24T05:41:05;5.10;;;2.90;;
53151;SDS011;39234;53.158;6.322;2023-04-24T05:43:31;5.43;;;2.90;;
53151;SDS011;39234;53.158;6.322;2023-04-24T05:45:57;4.75;;;2.70;;
53151;SDS011;39234;53.158;6.322;2023-04-24T05:48:23;5.50;;;3.40;;
53151;SDS011;39234;53.158;6.322;2023-04-24T05:50:49;5.10;;;2.70;;
53151;SDS011;39234;53.158;6.322;2023-04-24T05:53:14;6.55;;;3.67;;
53151;SDS011;39234;53.158;6.322;2023-04-24T05:55:40;6.07;;;4.00;;
53151;SDS011;39234;53.158;6.322;2023-04-24T05:58:06;7.88;;;4.68;;
53151;SDS011;39234;53.158;6.322;2023-04-24T06:00:32;7.38;;;4.20;;
53151;SDS011;39234;53.158;6.322;2023-04-24T06:02:59;7.60;;;3.63;;
53151;SDS011;39234;53.158;6.322;2023-04-24T06:05:25;6.97;;;3.50;;
53151;SDS011;39234;53.158;6.322;2023-04-24T06:07:51;6.60;;;3.78;;
53151;SDS011;39234;53.158;6.322;2023-04-24T06:10:17;11.55;;;4.15;;
53151;SDS011;39234;53.158;6.322;2023-04-24T06:12:43;10.15;;;4.22;;
53151;SDS011;39234;53.158;6.322;2023-04-24T06:15:09;8.07;;;4.13;;
53151;SDS011;39234;53.158;6.322;2023-04-24T06:17:35;9.80;;;4.38;;
53151;SDS011;39234;53.158;6.322;2023-04-24T06:20:02;9.35;;;4.50;;
53151;SDS011;39234;53.158;6.322;2023-04-24T06:22:30;7.20;;;4.30;;
53151;SDS011;39234;53.158;6.322;2023-04-24T06:24:56;6.45;;;4.05;;
53151;SDS011;39234;53.158;6.322;2023-04-24T06:27:22;8.07;;;3.72;;
53151;SDS011;39234;53.158;6.322;2023-04-24T06:29:47;5.85;;;3.50;;
53151;SDS011;39234;53.158;6.322;2023-04-24T06:32:19;6.72;;;3.67;;
53151;SDS011;39234;53.158;6.322;2023-04-24T06:34:48;6.20;;;2.90;;
53151;SDS011;39234;53.158;6.322;2023-04-24T06:37:14;6.22;;;3.55;;
53151;SDS011;39234;53.158;6.322;2023-04-24T06:39:41;7.63;;;3.72;;
53151;SDS011;39234;53.158;6.322;2023-04-24T06:42:07;7.05;;;3.33;;
53151;SDS011;39234;53.158;6.322;2023-04-24T06:44:34;6.35;;;2.95;;
53151;SDS011;39234;53.158;6.322;2023-04-24T06:47:05;5.37;;;2.70;;
53151;SDS011;39234;53.158;6.322;2023-04-24T06:49:35;4.47;;;2.40;;
53151;SDS011;39234;53.158;6.322;2023-04-24T06:52:02;7.22;;;2.55;;
53151;SDS011;39234;53.158;6.322;2023-04-24T06:54:28;7.38;;;2.25;;
53151;SDS011;39234;53.158;6.322;2023-04-24T06:56:55;5.53;;;2.42;;
53151;SDS011;39234;53.158;6.322;2023-04-24T06:59:22;8.32;;;2.60;;
53151;SDS011;39234;53.158;6.322;2023-04-24T07:01:51;11.93;;;2.00;;
53151;SDS011;39234;53.158;6.322;2023-04-24T07:04:17;3.97;;;2.03;;
53151;SDS011;39234;53.158;6.322;2023-04-24T07:06:44;8.57;;;2.42;;
53151;SDS011;39234;53.158;6.322;2023-04-24T07:09:11;5.03;;;2.20;;
53151;SDS011;39234;53.158;6.322;2023-04-24T07:11:38;5.97;;;1.90;;
53151;SDS011;39234;53.158;6.322;2023-04-24T07:14:05;5.43;;;1.88;;
53151;SDS011;39234;53.158;6.322;2023-04-24T07:16:32;5.53;;;2.20;;
53151;SDS011;39234;53.158;6.322;2023-04-24T07:18:58;6.80;;;1.70;;
53151;SDS011;39234;53.158;6.322;2023-04-24T07:21:23;4.60;;;1.65;;
53151;SDS011;39234;53.158;6.322;2023-04-24T07:23:50;5.40;;;1.65;;
53151;SDS011;39234;53.158;6.322;2023-04-24T07:26:16;6.90;;;1.50;;
53151;SDS011;39234;53.158;6.322;2023-04-24T07:28:42;3.15;;;1.35;;
53151;SDS011;39234;53.158;6.322;2023-04-24T07:31:08;9.32;;;2.35;;
53151;SDS011;39234;53.158;6.322;2023-04-24T07:33:35;7.72;;;2.47;;
53151;SDS011;39234;53.158;6.322;2023-04-24T07:36:01;8.13;;;3.47;;
53151;SDS011;39234;53.158;6.322;2023-04-24T07:38:29;9.38;;;4.30;;
53151;SDS011;39234;53.158;6.322;2023-04-24T07:40:55;14.57;;;5.60;;
53151;SDS011;39234;53.158;6.322;2023-04-24T07:43:20;10.80;;;6.15;;
53151;SDS011;39234;53.158;6.322;2023-04-24T07:45:47;17.23;;;7.80;;
53151;SDS011;39234;53.158;6.322;2023-04-24T07:48:12;14.55;;;9.02;;
53151;SDS011;39234;53.158;6.322;2023-04-24T07:50:41;16.83;;;10.32;;
53151;SDS011;39234;53.158;6.322;2023-04-24T07:53:07;17.15;;;10.93;;
53151;SDS011;39234;53.158;6.322;2023-04-24T07:55:33;19.40;;;11.60;;
53151;SDS011;39234;53.158;6.322;2023-04-24T07:57:59;23.40;;;11.30;;
53151;SDS011;39234;53.158;6.322;2023-04-24T08:00:24;16.90;;;9.98;;
53151;SDS011;39234;53.158;6.322;2023-04-24T08:02:50;19.13;;;10.60;;
53151;SDS011;39234;53.158;6.322;2023-04-24T08:05:16;21.58;;;12.25;;
53151;SDS011;39234;53.158;6.322;2023-04-24T08:07:42;18.98;;;11.45;;
53151;SDS011;39234;53.158;6.322;2023-04-24T08:10:09;21.83;;;12.27;;
53151;SDS011;39234;53.158;6.322;2023-04-24T08:12:36;17.70;;;11.38;;
53151;SDS011;39234;53.158;6.322;2023-04-24T08:15:02;16.27;;;11.00;;
53151;SDS011;39234;53.158;6.322;2023-04-24T08:17:30;15.65;;;10.77;;
53151;SDS011;39234;53.158;6.322;2023-04-24T08:19:55;17.92;;;10.10;;
53151;SDS011;39234;53.158;6.322;2023-04-24T08:22:26;18.00;;;11.18;;
53151;SDS011;39234;53.158;6.322;2023-04-24T08:24:52;15.40;;;10.30;;
53151;SDS011;39234;53.158;6.322;2023-04-24T08:27:19;16.83;;;10.27;;
53151;SDS011;39234;53.158;6.322;2023-04-24T08:29:45;16.42;;;10.57;;
53151;SDS011;39234;53.158;6.322;2023-04-24T08:32:10;19.50;;;10.77;;
53151;SDS011;39234;53.158;6.322;2023-04-24T08:34:36;18.55;;;10.50;;
53151;SDS011;39234;53.158;6.322;2023-04-24T08:37:02;16.63;;;10.63;;
53151;SDS011;39234;53.158;6.322;2023-04-24T08:39:28;15.75;;;9.85;;
53151;SDS011;39234;53.158;6.322;2023-04-24T08:41:54;19.45;;;11.63;;
53151;SDS011;39234;53.158;6.322;2023-04-24T08:44:21;16.23;;;10.65;;
53151;SDS011;39234;53.158;6.322;2023-04-24T08:46:49;17.17;;;10.85;;
53151;SDS011;39234;53.158;6.322;2023-04-24T08:49:17;13.73;;;10.60;;
53151;SDS011;39234;53.158;6.322;2023-04-24T08:51:43;21.73;;;10.85;;
53151;SDS011;39234;53.158;6.322;2023-04-24T08:54:11;16.88;;;11.35;;
53151;SDS011;39234;53.158;6.322;2023-04-24T08:56:38;20.73;;;11.00;;
53151;SDS011;39234;53.158;6.322;2023-04-24T08:59:05;15.73;;;9.48;;
53151;SDS011;39234;53.158;6.322;2023-04-24T09:01:31;15.70;;;9.25;;
53151;SDS011;39234;53.158;6.322;2023-04-24T09:04:02;14.95;;;9.77;;
53151;SDS011;39234;53.158;6.322;2023-04-24T09:06:28;16.05;;;7.00;;
53151;SDS011;39234;53.158;6.322;2023-04-24T09:08:55;12.75;;;7.07;;
53151;SDS011;39234;53.158;6.322;2023-04-24T09:11:25;14.23;;;7.40;;
53151;SDS011;39234;53.158;6.322;2023-04-24T09:13:53;13.40;;;6.80;;
53151;SDS011;39234;53.158;6.322;2023-04-24T09:16:19;13.40;;;6.43;;
53151;SDS011;39234;53.158;6.322;2023-04-24T09:18:45;13.50;;;6.00;;
53151;SDS011;39234;53.158;6.322;2023-04-24T09:21:11;12.27;;;6.05;;
53151;SDS011;39234;53.158;6.322;2023-04-24T09:23:37;13.55;;;6.93;;
53151;SDS011;39234;53.158;6.322;2023-04-24T09:26:04;15.00;;;7.18;;
53151;SDS011;39234;53.158;6.322;2023-04-24T09:28:31;14.10;;;6.70;;
53151;SDS011;39234;53.158;6.322;2023-04-24T09:31:13;16.30;;;5.90;;
53151;SDS011;39234;53.158;6.322;2023-04-24T09:34:01;14.05;;;6.30;;
53151;SDS011;39234;53.158;6.322;2023-04-24T09:36:33;15.07;;;6.10;;
53151;SDS011;39234;53.158;6.322;2023-04-24T09:39:18;13.38;;;5.72;;
53151;SDS011;39234;53.158;6.322;2023-04-24T09:41:48;13.85;;;5.05;;
53151;SDS011;39234;53.158;6.322;2023-04-24T09:44:16;15.40;;;5.22;;
53151;SDS011;39234;53.158;6.322;2023-04-24T09:46:49;9.30;;;4.47;;
53151;SDS011;39234;53.158;6.322;2023-04-24T09:49:23;11.40;;;5.15;;
53151;SDS011;39234;53.158;6.322;2023-04-24T09:51:50;15.98;;;3.70;;
53151;SDS011;39234;53.158;6.322;2023-04-24T09:54:17;9.32;;;3.30;;
53151;SDS011;39234;53.158;6.322;2023-04-24T09:56:46;8.35;;;3.08;;
53151;SDS011;39234;53.158;6.322;2023-04-24T09:59:14;10.15;;;3.05;;
53151;SDS011;39234;53.158;6.322;2023-04-24T10:01:41;10.65;;;3.22;;
53151;SDS011;39234;53.158;6.322;2023-04-24T10:07:05;11.75;;;3.00;;
53151;SDS011;39234;53.158;6.322;2023-04-24T10:09:31;16.52;;;3.72;;
53151;SDS011;39234;53.158;6.322;2023-04-24T10:11:58;17.02;;;3.75;;
53151;SDS011;39234;53.158;6.322;2023-04-24T10:14:27;15.48;;;4.20;;
53151;SDS011;39234;53.158;6.322;2023-04-24T10:16:53;15.85;;;3.53;;
53151;SDS011;39234;53.158;6.322;2023-04-24T10:19:20;8.30;;;2.70;;
53151;SDS011;39234;53.158;6.322;2023-04-24T10:21:46;14.45;;;2.90;;
53151;SDS011;39234;53.158;6.322;2023-04-24T10:24:16;8.38;;;2.33;;
53151;SDS011;39234;53.158;6.322;2023-04-24T10:26:43;9.77;;;2.72;;
53151;SDS011;39234;53.158;6.322;2023-04-24T10:29:11;10.23;;;2.97;;
53151;SDS011;39234;53.158;6.322;2023-04-24T10:31:38;9.13;;;1.90;;
53151;SDS011;39234;53.158;6.322;2023-04-24T10:34:04;11.85;;;2.17;;
53151;SDS011;39234;53.158;6.322;2023-04-24T10:36:32;7.45;;;2.17;;
53151;SDS011;39234;53.158;6.322;2023-04-24T10:39:00;10.15;;;2.22;;
53151;SDS011;39234;53.158;6.322;2023-04-24T10:41:27;9.10;;;2.35;;
53151;SDS011;39234;53.158;6.322;2023-04-24T10:44:05;9.88;;;2.10;;
53151;SDS011;39234;53.158;6.322;2023-04-24T10:46:31;11.75;;;2.72;;
53151;SDS011;39234;53.158;6.322;2023-04-24T10:48:57;9.65;;;2.42;;
53151;SDS011;39234;53.158;6.322;2023-04-24T10:51:24;7.32;;;2.00;;
53151;SDS011;39234;53.158;6.322;2023-04-24T10:54:27;11.82;;;2.97;;
53151;SDS011;39234;53.158;6.322;2023-04-24T10:59:51;9.20;;;2.23;;
53151;SDS011;39234;53.158;6.322;2023-04-24T11:02:38;8.10;;;2.00;;
53151;SDS011;39234;53.158;6.322;2023-04-24T11:05:05;7.32;;;1.67;;
53151;SDS011;39234;53.158;6.322;2023-04-24T11:11:18;9.35;;;1.90;;
53151;SDS011;39234;53.158;6.322;2023-04-24T11:13:26;9.73;;;2.10;;
53151;SDS011;39234;53.158;6.322;2023-04-24T11:16:20;7.55;;;2.22;;
53151;SDS011;39234;53.158;6.322;2023-04-24T11:18:49;7.10;;;1.60;;
53151;SDS011;39234;53.158;6.322;2023-04-24T11:21:19;11.02;;;2.03;;
53151;SDS011;39234;53.158;6.322;2023-04-24T11:23:45;10.60;;;2.00;;
53151;SDS011;39234;53.158;6.322;2023-04-24T11:26:12;9.88;;;1.70;;
53151;SDS011;39234;53.158;6.322;2023-04-24T11:28:48;11.27;;;2.30;;
53151;SDS011;39234;53.158;6.322;2023-04-24T11:34:05;8.20;;;1.98;;
53151;SDS011;39234;53.158;6.322;2023-04-24T11:36:35;6.35;;;1.25;;
53151;SDS011;39234;53.158;6.322;2023-04-24T11:39:01;6.95;;;1.70;;
53151;SDS011;39234;53.158;6.322;2023-04-24T11:41:28;11.20;;;1.83;;
53151;SDS011;39234;53.158;6.322;2023-04-24T11:43:54;6.78;;;2.17;;
53151;SDS011;39234;53.158;6.322;2023-04-24T11:46:21;5.65;;;1.70;;
53151;SDS011;39234;53.158;6.322;2023-04-24T11:48:47;5.25;;;1.38;;
53151;SDS011;39234;53.158;6.322;2023-04-24T11:51:13;7.95;;;1.75;;
53151;SDS011;39234;53.158;6.322;2023-04-24T11:53:39;8.10;;;1.40;;
53151;SDS011;39234;53.158;6.322;2023-04-24T11:56:05;5.72;;;1.42;;
53151;SDS011;39234;53.158;6.322;2023-04-24T11:58:38;4.05;;;1.23;;
53151;SDS011;39234;53.158;6.322;2023-04-24T12:01:04;7.10;;;1.50;;
53151;SDS011;39234;53.158;6.322;2023-04-24T12:03:30;7.53;;;1.42;;
53151;SDS011;39234;53.158;6.322;2023-04-24T12:06:06;6.72;;;1.20;;
53151;SDS011;39234;53.158;6.322;2023-04-24T12:08:36;10.35;;;1.40;;
53151;SDS011;39234;53.158;6.322;2023-04-24T12:11:03;6.50;;;1.42;;
53151;SDS011;39234;53.158;6.322;2023-04-24T12:13:34;9.13;;;1.17;;
53151;SDS011;39234;53.158;6.322;2023-04-24T12:16:01;5.70;;;1.05;;
53151;SDS011;39234;53.158;6.322;2023-04-24T12:18:29;3.53;;;0.93;;
53151;SDS011;39234;53.158;6.322;2023-04-24T12:20:55;4.47;;;0.90;;
53151;SDS011;39234;53.158;6.322;2023-04-24T12:23:42;7.82;;;1.25;;
53151;SDS011;39234;53.158;6.322;2023-04-24T12:26:08;5.45;;;1.40;;
53151;SDS011;39234;53.158;6.322;2023-04-24T12:28:35;4.13;;;1.00;;
53151;SDS011;39234;53.158;6.322;2023-04-24T12:31:01;10.98;;;2.17;;
53151;SDS011;39234;53.158;6.322;2023-04-24T12:33:27;5.50;;;1.10;;
53151;SDS011;39234;53.158;6.322;2023-04-24T12:35:58;5.25;;;1.00;;
53151;SDS011;39234;53.158;6.322;2023-04-24T12:38:25;8.15;;;2.33;;
53151;SDS011;39234;53.158;6.322;2023-04-24T12:41:08;8.57;;;1.30;;
53151;SDS011;39234;53.158;6.322;2023-04-24T12:43:35;4.70;;;1.10;;
53151;SDS011;39234;53.158;6.322;2023-04-24T12:46:02;8.27;;;1.88;;
53151;SDS011;39234;53.158;6.322;2023-04-24T12:48:28;7.50;;;1.30;;
53151;SDS011;39234;53.158;6.322;2023-04-24T12:50:54;7.72;;;2.20;;
53151;SDS011;39234;53.158;6.322;2023-04-24T12:53:25;5.18;;;1.10;;
53151;SDS011;39234;53.158;6.322;2023-04-24T12:55:51;8.15;;;1.73;;
53151;SDS011;39234;53.158;6.322;2023-04-24T12:58:20;5.13;;;1.00;;
53151;SDS011;39234;53.158;6.322;2023-04-24T13:00:46;5.85;;;1.42;;
53151;SDS011;39234;53.158;6.322;2023-04-24T13:03:12;4.25;;;1.40;;
53151;SDS011;39234;53.158;6.322;2023-04-24T13:05:38;7.07;;;0.95;;
53151;SDS011;39234;53.158;6.322;2023-04-24T13:08:04;7.50;;;2.38;;
53151;SDS011;39234;53.158;6.322;2023-04-24T13:10:30;4.88;;;0.95;;
53151;SDS011;39234;53.158;6.322;2023-04-24T13:12:56;9.25;;;1.85;;
53151;SDS011;39234;53.158;6.322;2023-04-24T13:15:22;7.78;;;1.05;;
53151;SDS011;39234;53.158;6.322;2023-04-24T13:17:47;6.90;;;1.13;;
53151;SDS011;39234;53.158;6.322;2023-04-24T13:20:13;4.50;;;1.10;;
53151;SDS011;39234;53.158;6.322;2023-04-24T13:22:39;8.13;;;1.08;;
53151;SDS011;39234;53.158;6.322;2023-04-24T13:25:05;8.32;;;1.63;;
53151;SDS011;39234;53.158;6.322;2023-04-24T13:27:31;5.53;;;1.20;;
53151;SDS011;39234;53.158;6.322;2023-04-24T13:29:57;9.02;;;0.80;;
53151;SDS011;39234;53.158;6.322;2023-04-24T13:32:23;4.63;;;1.35;;
53151;SDS011;39234;53.158;6.322;2023-04-24T13:34:50;3.50;;;0.80;;
53151;SDS011;39234;53.158;6.322;2023-04-24T13:37:15;4.40;;;0.80;;
53151;SDS011;39234;53.158;6.322;2023-04-24T13:39:41;4.20;;;0.93;;
53151;SDS011;39234;53.158;6.322;2023-04-24T13:42:07;6.57;;;0.90;;
53151;SDS011;39234;53.158;6.322;2023-04-24T13:44:33;8.32;;;1.25;;
53151;SDS011;39234;53.158;6.322;2023-04-24T13:46:59;4.80;;;1.08;;
53151;SDS011;39234;53.158;6.322;2023-04-24T13:49:25;5.75;;;1.13;;
53151;SDS011;39234;53.158;6.322;2023-04-24T13:51:52;11.88;;;2.67;;
53151;SDS011;39234;53.158;6.322;2023-04-24T13:54:19;6.93;;;1.40;;
53151;SDS011;39234;53.158;6.322;2023-04-24T13:56:44;6.35;;;1.40;;
53151;SDS011;39234;53.158;6.322;2023-04-24T13:59:12;8.70;;;1.70;;
53151;SDS011;39234;53.158;6.322;2023-04-24T14:01:38;8.27;;;1.73;;
53151;SDS011;39234;53.158;6.322;2023-04-24T14:04:03;10.98;;;1.90;;
53151;SDS011;39234;53.158;6.322;2023-04-24T14:06:29;8.30;;;1.60;;
53151;SDS011;39234;53.158;6.322;2023-04-24T14:08:56;13.90;;;2.85;;
53151;SDS011;39234;53.158;6.322;2023-04-24T14:11:22;9.93;;;1.70;;
53151;SDS011;39234;53.158;6.322;2023-04-24T14:13:48;13.82;;;2.15;;
53151;SDS011;39234;53.158;6.322;2023-04-24T14:16:14;7.90;;;1.75;;
53151;SDS011;39234;53.158;6.322;2023-04-24T14:18:40;14.43;;;3.30;;
53151;SDS011;39234;53.158;6.322;2023-04-24T14:21:06;9.50;;;2.92;;
53151;SDS011;39234;53.158;6.322;2023-04-24T14:23:32;11.80;;;2.55;;
53151;SDS011;39234;53.158;6.322;2023-04-24T14:25:58;8.77;;;1.90;;
53151;SDS011;39234;53.158;6.322;2023-04-24T14:28:24;6.93;;;1.60;;
53151;SDS011;39234;53.158;6.322;2023-04-24T14:30:51;5.57;;;1.55;;
53151;SDS011;39234;53.158;6.322;2023-04-24T14:33:17;6.60;;;1.90;;
53151;SDS011;39234;53.158;6.322;2023-04-24T14:35:43;7.68;;;1.90;;
53151;SDS011;39234;53.158;6.322;2023-04-24T14:38:09;13.13;;;2.30;;
53151;SDS011;39234;53.158;6.322;2023-04-24T14:40:36;12.23;;;2.83;;
53151;SDS011;39234;53.158;6.322;2023-04-24T14:43:02;16.33;;;2.30;;
53151;SDS011;39234;53.158;6.322;2023-04-24T14:45:28;7.78;;;2.25;;
53151;SDS011;39234;53.158;6.322;2023-04-24T14:47:54;10.18;;;2.42;;
53151;SDS011;39234;53.158;6.322;2023-04-24T14:50:20;9.30;;;2.05;;
53151;SDS011;39234;53.158;6.322;2023-04-24T14:52:46;13.52;;;3.88;;